PWSweather.com
Personal Weather Stations
Station Observations
SYLVANIAWX
Erie St. Near Centennial Rd., Sylvania, OH 43560

Erie St. Near Centennial Rd.Sylvania, OH 43560

Lat: 41.7172065, Lon: -83.7420078

Elevation: 672

Station Type: Davis Vantage Pro2

http://www.sylvaniaweather.com

High Low Average
Temperature 35.7°F2.1°C 29.0°F-1.7°C 32.8°F0.4°C
Dew Point 30.8°F-0.7°C 19.4°F-7.0°C 27.2°F-2.7°C
Winds 24.0 mph 38.6 kmh Calm Calm 6.0 mph SW9.7 kmh SW
Wind Gusts 33.0 mph53.1 kmh 1.0 mph1.6 kmh 13.0 mph20.9 kmh
Humidity 92% 57% 80%
Pressure 30.09 in1019.0 mb 29.78 in1008.5 mb -
Precipitation 0.00 in0.0 mm - -
Hour Temp Dew Point Humidity Winds Wind Gusts Pressure Precip Precip Rate Daily Precip Total
12:00 AM 31.9°F-0.1°C 27.6°F-2.4°C 84% 3.0 mph SW4.8 kmh SW 3.0 mph4.8 kmh 29.96 in1014.6 mb 0.00 in0.0 mm 0.00 in/hr0.0 mm/hr 0.00 in0.0 mm
12:05 AM 32.1°F0.1°C 27.8°F-2.3°C 84% 2.0 mph SW3.2 kmh SW 5.0 mph8.0 kmh 29.95 in1014.2 mb 0.00 in0.0 mm 0.00 in/hr0.0 mm/hr 0.00 in0.0 mm
12:11 AM 32.3°F0.2°C 28.0°F-2.2°C 84% Calm Calm 1.0 mph1.6 kmh 29.95 in1014.2 mb 0.00 in0.0 mm 0.00 in/hr0.0 mm/hr 0.00 in0.0 mm
12:16 AM 32.4°F0.2°C 28.1°F-2.2°C 84% 3.0 mph SW4.8 kmh SW 6.0 mph9.7 kmh 29.95 in1014.2 mb 0.00 in0.0 mm 0.00 in/hr0.0 mm/hr 0.00 in0.0 mm
12:21 AM 32.5°F0.3°C 28.2°F-2.1°C 84% Calm Calm 3.0 mph4.8 kmh 29.94 in1013.9 mb 0.00 in0.0 mm 0.00 in/hr0.0 mm/hr 0.00 in0.0 mm
12:25 AM 32.6°F0.3°C 28.3°F-2.1°C 84% Calm Calm 3.0 mph4.8 kmh 29.94 in1013.9 mb 0.00 in0.0 mm 0.00 in/hr0.0 mm/hr 0.00 in0.0 mm
12:35 AM 32.6°F0.3°C 28.3°F-2.1°C 84% 6.0 mph S9.7 kmh S 7.0 mph11.3 kmh 29.94 in1013.9 mb 0.00 in0.0 mm 0.00 in/hr0.0 mm/hr 0.00 in0.0 mm
12:40 AM 32.6°F0.3°C 28.3°F-2.1°C 84% 4.0 mph SW6.4 kmh SW 5.0 mph8.0 kmh 29.93 in1013.5 mb 0.00 in0.0 mm 0.00 in/hr0.0 mm/hr 0.00 in0.0 mm
12:46 AM 32.6°F0.3°C 28.3°F-2.1°C 84% 4.0 mph SSW6.4 kmh SSW 5.0 mph8.0 kmh 29.94 in1013.9 mb 0.00 in0.0 mm 0.00 in/hr0.0 mm/hr 0.00 in0.0 mm
12:50 AM 32.5°F0.3°C 28.2°F-2.1°C 84% 4.0 mph SSW6.4 kmh SSW 6.0 mph9.7 kmh 29.94 in1013.9 mb 0.00 in0.0 mm 0.00 in/hr0.0 mm/hr 0.00 in0.0 mm
12:55 AM 32.5°F0.3°C 28.2°F-2.1°C 84% Calm Calm 6.0 mph9.7 kmh 29.93 in1013.5 mb 0.00 in0.0 mm 0.00 in/hr0.0 mm/hr 0.00 in0.0 mm
01:00 AM 32.5°F0.3°C 28.2°F-2.1°C 84% Calm Calm 3.0 mph4.8 kmh 29.93 in1013.5 mb 0.00 in0.0 mm 0.00 in/hr0.0 mm/hr 0.00 in0.0 mm
01:06 AM 32.5°F0.3°C 28.2°F-2.1°C 84% Calm Calm 6.0 mph9.7 kmh 29.93 in1013.5 mb 0.00 in0.0 mm 0.00 in/hr0.0 mm/hr 0.00 in0.0 mm
01:10 AM 32.5°F0.3°C 28.2°F-2.1°C 84% Calm Calm 1.0 mph1.6 kmh 29.93 in1013.5 mb 0.00 in0.0 mm 0.00 in/hr0.0 mm/hr 0.00 in0.0 mm
01:16 AM 32.5°F0.3°C 28.2°F-2.1°C 84% 2.0 mph SW3.2 kmh SW 6.0 mph9.7 kmh 29.92 in1013.2 mb 0.00 in0.0 mm 0.00 in/hr0.0 mm/hr 0.00 in0.0 mm
01:20 AM 32.5°F0.3°C 28.2°F-2.1°C 84% 1.0 mph SW1.6 kmh SW 3.0 mph4.8 kmh 29.92 in1013.2 mb 0.00 in0.0 mm 0.00 in/hr0.0 mm/hr 0.00 in0.0 mm
01:25 AM 32.6°F0.3°C 28.3°F-2.1°C 84% 1.0 mph SW1.6 kmh SW 6.0 mph9.7 kmh 29.93 in1013.5 mb 0.00 in0.0 mm 0.00 in/hr0.0 mm/hr 0.00 in0.0 mm
01:30 AM 32.5°F0.3°C 28.2°F-2.1°C 84% Calm Calm 4.0 mph6.4 kmh 29.92 in1013.2 mb 0.00 in0.0 mm 0.00 in/hr0.0 mm/hr 0.00 in0.0 mm
01:35 AM 32.6°F0.3°C 28.3°F-2.1°C 84% 2.0 mph SW3.2 kmh SW 4.0 mph6.4 kmh 29.92 in1013.2 mb 0.00 in0.0 mm 0.00 in/hr0.0 mm/hr 0.00 in0.0 mm
01:40 AM 32.5°F0.3°C 28.2°F-2.1°C 84% 4.0 mph SSE6.4 kmh SSE 4.0 mph6.4 kmh 29.92 in1013.2 mb 0.00 in0.0 mm 0.00 in/hr0.0 mm/hr 0.00 in0.0 mm
01:45 AM 32.5°F0.3°C 28.5°F-1.9°C 85% Calm Calm 11.0 mph17.7 kmh 29.92 in1013.2 mb 0.00 in0.0 mm 0.00 in/hr0.0 mm/hr 0.00 in0.0 mm
01:50 AM 32.5°F0.3°C 28.5°F-1.9°C 85% 4.0 mph S6.4 kmh S 5.0 mph8.0 kmh 29.91 in1012.9 mb 0.00 in0.0 mm 0.00 in/hr0.0 mm/hr 0.00 in0.0 mm
01:55 AM 32.5°F0.3°C 28.5°F-1.9°C 85% 2.0 mph SW3.2 kmh SW 6.0 mph9.7 kmh 29.91 in1012.9 mb 0.00 in0.0 mm 0.00 in/hr0.0 mm/hr 0.00 in0.0 mm
02:00 AM 32.6°F0.3°C 28.6°F-1.9°C 85% 4.0 mph SSW6.4 kmh SSW 5.0 mph8.0 kmh 29.91 in1012.9 mb 0.00 in0.0 mm 0.00 in/hr0.0 mm/hr 0.00 in0.0 mm
02:05 AM 32.6°F0.3°C 28.6°F-1.9°C 85% 4.0 mph SSW6.4 kmh SSW 10.0 mph16.1 kmh 29.91 in1012.9 mb 0.00 in0.0 mm 0.00 in/hr0.0 mm/hr 0.00 in0.0 mm
02:10 AM 32.6°F0.3°C 28.6°F-1.9°C 85% Calm Calm 6.0 mph9.7 kmh 29.91 in1012.9 mb 0.00 in0.0 mm 0.00 in/hr0.0 mm/hr 0.00 in0.0 mm
02:15 AM 32.7°F0.4°C 28.7°F-1.8°C 85% 3.0 mph SSW4.8 kmh SSW 6.0 mph9.7 kmh 29.90 in1012.5 mb 0.00 in0.0 mm 0.00 in/hr0.0 mm/hr 0.00 in0.0 mm
02:21 AM 32.7°F0.4°C 28.7°F-1.8°C 85% Calm Calm 3.0 mph4.8 kmh 29.90 in1012.5 mb 0.00 in0.0 mm 0.00 in/hr0.0 mm/hr 0.00 in0.0 mm
02:25 AM 32.8°F0.4°C 28.8°F-1.8°C 85% 3.0 mph SSW4.8 kmh SSW 11.0 mph17.7 kmh 29.90 in1012.5 mb 0.00 in0.0 mm 0.00 in/hr0.0 mm/hr 0.00 in0.0 mm
02:30 AM 32.9°F0.5°C 28.9°F-1.7°C 85% 2.0 mph SW3.2 kmh SW 4.0 mph6.4 kmh 29.90 in1012.5 mb 0.00 in0.0 mm 0.00 in/hr0.0 mm/hr 0.00 in0.0 mm
02:35 AM 32.9°F0.5°C 29.2°F-1.6°C 86% 5.0 mph SSW8.0 kmh SSW 7.0 mph11.3 kmh 29.90 in1012.5 mb 0.00 in0.0 mm 0.00 in/hr0.0 mm/hr 0.00 in0.0 mm
02:40 AM 32.8°F0.4°C 29.1°F-1.6°C 86% 3.0 mph SW4.8 kmh SW 6.0 mph9.7 kmh 29.90 in1012.5 mb 0.00 in0.0 mm 0.00 in/hr0.0 mm/hr 0.00 in0.0 mm
02:45 AM 32.7°F0.4°C 29.3°F-1.5°C 87% 5.0 mph SW8.0 kmh SW 11.0 mph17.7 kmh 29.90 in1012.5 mb 0.00 in0.0 mm 0.00 in/hr0.0 mm/hr 0.00 in0.0 mm
02:50 AM 32.6°F0.3°C 29.2°F-1.6°C 87% 4.0 mph SW6.4 kmh SW 6.0 mph9.7 kmh 29.90 in1012.5 mb 0.00 in0.0 mm 0.00 in/hr0.0 mm/hr 0.00 in0.0 mm
02:56 AM 32.5°F0.3°C 29.4°F-1.4°C 88% 5.0 mph SW8.0 kmh SW 8.0 mph12.9 kmh 29.90 in1012.5 mb 0.00 in0.0 mm 0.00 in/hr0.0 mm/hr 0.00 in0.0 mm
03:00 AM 32.4°F0.2°C 29.3°F-1.5°C 88% 4.0 mph SW6.4 kmh SW 5.0 mph8.0 kmh 29.90 in1012.5 mb 0.00 in0.0 mm 0.00 in/hr0.0 mm/hr 0.00 in0.0 mm
03:05 AM 32.3°F0.2°C 29.4°F-1.4°C 89% 4.0 mph SW6.4 kmh SW 7.0 mph11.3 kmh 29.90 in1012.5 mb 0.00 in0.0 mm 0.00 in/hr0.0 mm/hr 0.00 in0.0 mm
03:11 AM 32.3°F0.2°C 29.4°F-1.4°C 89% 2.0 mph WSW3.2 kmh WSW 4.0 mph6.4 kmh 29.90 in1012.5 mb 0.00 in0.0 mm 0.00 in/hr0.0 mm/hr 0.00 in0.0 mm
03:15 AM 32.3°F0.2°C 29.4°F-1.4°C 89% 4.0 mph SW6.4 kmh SW 6.0 mph9.7 kmh 29.90 in1012.5 mb 0.00 in0.0 mm 0.00 in/hr0.0 mm/hr 0.00 in0.0 mm
03:21 AM 32.3°F0.2°C 29.7°F-1.3°C 90% 5.0 mph WSW8.0 kmh WSW 6.0 mph9.7 kmh 29.89 in1012.2 mb 0.00 in0.0 mm 0.00 in/hr0.0 mm/hr 0.00 in0.0 mm
03:30 AM 32.3°F0.2°C 29.7°F-1.3°C 90% 5.0 mph WSW8.0 kmh WSW 6.0 mph9.7 kmh 29.89 in1012.2 mb 0.00 in0.0 mm 0.00 in/hr0.0 mm/hr 0.00 in0.0 mm
03:35 AM 32.2°F0.1°C 29.6°F-1.3°C 90% 3.0 mph SW4.8 kmh SW 9.0 mph14.5 kmh 29.90 in1012.5 mb 0.00 in0.0 mm 0.00 in/hr0.0 mm/hr 0.00 in0.0 mm
03:40 AM 32.2°F0.1°C 29.6°F-1.3°C 90% 3.0 mph S4.8 kmh S 4.0 mph6.4 kmh 29.90 in1012.5 mb 0.00 in0.0 mm 0.00 in/hr0.0 mm/hr 0.00 in0.0 mm
03:45 AM 32.2°F0.1°C 29.6°F-1.3°C 90% 1.0 mph SW1.6 kmh SW 7.0 mph11.3 kmh 29.89 in1012.2 mb 0.00 in0.0 mm 0.00 in/hr0.0 mm/hr 0.00 in0.0 mm
03:50 AM 32.3°F0.2°C 30.0°F-1.1°C 91% 1.0 mph SW1.6 kmh SW 5.0 mph8.0 kmh 29.89 in1012.2 mb 0.00 in0.0 mm 0.00 in/hr0.0 mm/hr 0.00 in0.0 mm
03:55 AM 32.3°F0.2°C 30.0°F-1.1°C 91% 5.0 mph SW8.0 kmh SW 6.0 mph9.7 kmh 29.89 in1012.2 mb 0.00 in0.0 mm 0.00 in/hr0.0 mm/hr 0.00 in0.0 mm
04:00 AM 32.3°F0.2°C 30.0°F-1.1°C 91% 4.0 mph SSW6.4 kmh SSW 7.0 mph11.3 kmh 29.89 in1012.2 mb 0.00 in0.0 mm 0.00 in/hr0.0 mm/hr 0.00 in0.0 mm
04:05 AM 32.3°F0.2°C 30.0°F-1.1°C 91% 2.0 mph SSW3.2 kmh SSW 7.0 mph11.3 kmh 29.88 in1011.9 mb 0.00 in0.0 mm 0.00 in/hr0.0 mm/hr 0.00 in0.0 mm
04:10 AM 32.3°F0.2°C 30.0°F-1.1°C 91% Calm Calm 3.0 mph4.8 kmh 29.87 in1011.5 mb 0.00 in0.0 mm 0.00 in/hr0.0 mm/hr 0.00 in0.0 mm
04:15 AM 32.3°F0.2°C 30.0°F-1.1°C 91% 3.0 mph SSW4.8 kmh SSW 7.0 mph11.3 kmh 29.88 in1011.9 mb 0.00 in0.0 mm 0.00 in/hr0.0 mm/hr 0.00 in0.0 mm
04:21 AM 32.3°F0.2°C 30.0°F-1.1°C 91% 3.0 mph SW4.8 kmh SW 5.0 mph8.0 kmh 29.88 in1011.9 mb 0.00 in0.0 mm 0.00 in/hr0.0 mm/hr 0.00 in0.0 mm
04:26 AM 32.3°F0.2°C 30.0°F-1.1°C 91% 3.0 mph SW4.8 kmh SW 7.0 mph11.3 kmh 29.88 in1011.9 mb 0.00 in0.0 mm 0.00 in/hr0.0 mm/hr 0.00 in0.0 mm
04:30 AM 32.3°F0.2°C 30.0°F-1.1°C 91% 2.0 mph SSW3.2 kmh SSW 5.0 mph8.0 kmh 29.88 in1011.9 mb 0.00 in0.0 mm 0.00 in/hr0.0 mm/hr 0.00 in0.0 mm
04:35 AM 32.4°F0.2°C 30.1°F-1.1°C 91% 3.0 mph SW4.8 kmh SW 13.0 mph20.9 kmh 29.87 in1011.5 mb 0.00 in0.0 mm 0.00 in/hr0.0 mm/hr 0.00 in0.0 mm
04:40 AM 32.4°F0.2°C 30.1°F-1.1°C 91% 1.0 mph SW1.6 kmh SW 9.0 mph14.5 kmh 29.87 in1011.5 mb 0.00 in0.0 mm 0.00 in/hr0.0 mm/hr 0.00 in0.0 mm
04:45 AM 32.5°F0.3°C 30.2°F-1.0°C 91% 4.0 mph SW6.4 kmh SW 10.0 mph16.1 kmh 29.86 in1011.2 mb 0.00 in0.0 mm 0.00 in/hr0.0 mm/hr 0.00 in0.0 mm
04:51 AM 32.5°F0.3°C 30.2°F-1.0°C 91% 6.0 mph SW9.7 kmh SW 7.0 mph11.3 kmh 29.86 in1011.2 mb 0.00 in0.0 mm 0.00 in/hr0.0 mm/hr 0.00 in0.0 mm
04:55 AM 32.5°F0.3°C 30.2°F-1.0°C 91% 6.0 mph SSW9.7 kmh SSW 9.0 mph14.5 kmh 29.86 in1011.2 mb 0.00 in0.0 mm 0.00 in/hr0.0 mm/hr 0.00 in0.0 mm
05:00 AM 32.5°F0.3°C 30.2°F-1.0°C 91% 1.0 mph S1.6 kmh S 4.0 mph6.4 kmh 29.85 in1010.8 mb 0.00 in0.0 mm 0.00 in/hr0.0 mm/hr 0.00 in0.0 mm
05:06 AM 32.4°F0.2°C 30.1°F-1.1°C 91% 3.0 mph SSW4.8 kmh SSW 7.0 mph11.3 kmh 29.86 in1011.2 mb 0.00 in0.0 mm 0.00 in/hr0.0 mm/hr 0.00 in0.0 mm
05:10 AM 32.4°F0.2°C 30.1°F-1.1°C 91% 3.0 mph SSW4.8 kmh SSW 3.0 mph4.8 kmh 29.85 in1010.8 mb 0.00 in0.0 mm 0.00 in/hr0.0 mm/hr 0.00 in0.0 mm
05:16 AM 32.4°F0.2°C 30.1°F-1.1°C 91% Calm Calm 10.0 mph16.1 kmh 29.84 in1010.5 mb 0.00 in0.0 mm 0.00 in/hr0.0 mm/hr 0.00 in0.0 mm
05:20 AM 32.3°F0.2°C 30.0°F-1.1°C 91% 5.0 mph S8.0 kmh S 10.0 mph16.1 kmh 29.84 in1010.5 mb 0.00 in0.0 mm 0.00 in/hr0.0 mm/hr 0.00 in0.0 mm
05:25 AM 32.3°F0.2°C 30.0°F-1.1°C 91% Calm Calm 10.0 mph16.1 kmh 29.85 in1010.8 mb 0.00 in0.0 mm 0.00 in/hr0.0 mm/hr 0.00 in0.0 mm
05:31 AM 32.3°F0.2°C 30.0°F-1.1°C 91% 1.0 mph SSW1.6 kmh SSW 6.0 mph9.7 kmh 29.84 in1010.5 mb 0.00 in0.0 mm 0.00 in/hr0.0 mm/hr 0.00 in0.0 mm
05:35 AM 32.3°F0.2°C 30.0°F-1.1°C 91% 6.0 mph SW9.7 kmh SW 11.0 mph17.7 kmh 29.84 in1010.5 mb 0.00 in0.0 mm 0.00 in/hr0.0 mm/hr 0.00 in0.0 mm
05:40 AM 32.4°F0.2°C 30.3°F-0.9°C 92% 7.0 mph S11.3 kmh S 7.0 mph11.3 kmh 29.83 in1010.2 mb 0.00 in0.0 mm 0.00 in/hr0.0 mm/hr 0.00 in0.0 mm
05:45 AM 32.4°F0.2°C 30.1°F-1.1°C 91% 5.0 mph S8.0 kmh S 11.0 mph17.7 kmh 29.83 in1010.2 mb 0.00 in0.0 mm 0.00 in/hr0.0 mm/hr 0.00 in0.0 mm
05:50 AM 32.5°F0.3°C 30.2°F-1.0°C 91% 4.0 mph S6.4 kmh S 6.0 mph9.7 kmh 29.83 in1010.2 mb 0.00 in0.0 mm 0.00 in/hr0.0 mm/hr 0.00 in0.0 mm
05:56 AM 32.5°F0.3°C 30.2°F-1.0°C 91% 5.0 mph SW8.0 kmh SW 9.0 mph14.5 kmh 29.83 in1010.2 mb 0.00 in0.0 mm 0.00 in/hr0.0 mm/hr 0.00 in0.0 mm
06:00 AM 32.5°F0.3°C 30.2°F-1.0°C 91% 2.0 mph S3.2 kmh S 4.0 mph6.4 kmh 29.83 in1010.2 mb 0.00 in0.0 mm 0.00 in/hr0.0 mm/hr 0.00 in0.0 mm
06:05 AM 32.5°F0.3°C 30.2°F-1.0°C 91% 6.0 mph S9.7 kmh S 10.0 mph16.1 kmh 29.83 in1010.2 mb 0.00 in0.0 mm 0.00 in/hr0.0 mm/hr 0.00 in0.0 mm
06:11 AM 32.6°F0.3°C 30.3°F-0.9°C 91% Calm Calm 6.0 mph9.7 kmh 29.83 in1010.2 mb 0.00 in0.0 mm 0.00 in/hr0.0 mm/hr 0.00 in0.0 mm
06:15 AM 32.5°F0.3°C 30.2°F-1.0°C 91% 7.0 mph SW11.3 kmh SW 9.0 mph14.5 kmh 29.83 in1010.2 mb 0.00 in0.0 mm 0.00 in/hr0.0 mm/hr 0.00 in0.0 mm
06:20 AM 32.6°F0.3°C 30.3°F-0.9°C 91% 5.0 mph S8.0 kmh S 8.0 mph12.9 kmh 29.83 in1010.2 mb 0.00 in0.0 mm 0.00 in/hr0.0 mm/hr 0.00 in0.0 mm
06:25 AM 32.6°F0.3°C 30.3°F-0.9°C 91% 4.0 mph SW6.4 kmh SW 11.0 mph17.7 kmh 29.83 in1010.2 mb 0.00 in0.0 mm 0.00 in/hr0.0 mm/hr 0.00 in0.0 mm
06:30 AM 32.5°F0.3°C 30.2°F-1.0°C 91% 4.0 mph SSW6.4 kmh SSW 6.0 mph9.7 kmh 29.83 in1010.2 mb 0.00 in0.0 mm 0.00 in/hr0.0 mm/hr 0.00 in0.0 mm
06:35 AM 32.5°F0.3°C 30.2°F-1.0°C 91% 8.0 mph S12.9 kmh S 10.0 mph16.1 kmh 29.82 in1009.8 mb 0.01 in0.3 mm 0.12 in/hr3.0 mm/hr 0.01 in0.3 mm
06:40 AM 32.5°F0.3°C 30.2°F-1.0°C 91% 1.0 mph SW1.6 kmh SW 5.0 mph8.0 kmh 29.82 in1009.8 mb 0.01 in0.3 mm 0.00 in/hr0.0 mm/hr 0.01 in0.3 mm
06:45 AM 32.4°F0.2°C 30.1°F-1.1°C 91% Calm Calm 9.0 mph14.5 kmh 29.82 in1009.8 mb 0.01 in0.3 mm 0.00 in/hr0.0 mm/hr 0.01 in0.3 mm
06:50 AM 32.4°F0.2°C 30.1°F-1.1°C 91% 2.0 mph SSW3.2 kmh SSW 5.0 mph8.0 kmh 29.81 in1009.5 mb 0.01 in0.3 mm 0.00 in/hr0.0 mm/hr 0.01 in0.3 mm
06:55 AM 32.4°F0.2°C 30.1°F-1.1°C 91% 5.0 mph SW8.0 kmh SW 9.0 mph14.5 kmh 29.81 in1009.5 mb 0.01 in0.3 mm 0.00 in/hr0.0 mm/hr 0.01 in0.3 mm
07:01 AM 32.4°F0.2°C 30.1°F-1.1°C 91% 4.0 mph SSW6.4 kmh SSW 10.0 mph16.1 kmh 29.82 in1009.8 mb 0.01 in0.3 mm 0.00 in/hr0.0 mm/hr 0.01 in0.3 mm
07:05 AM 32.4°F0.2°C 30.3°F-0.9°C 92% 4.0 mph SSW6.4 kmh SSW 12.0 mph19.3 kmh 29.81 in1009.5 mb 0.01 in0.3 mm 0.00 in/hr0.0 mm/hr 0.01 in0.3 mm
07:10 AM 32.4°F0.2°C 30.3°F-0.9°C 92% 8.0 mph SW12.9 kmh SW 10.0 mph16.1 kmh 29.81 in1009.5 mb 0.01 in0.3 mm 0.00 in/hr0.0 mm/hr 0.01 in0.3 mm
07:15 AM 32.5°F0.3°C 30.4°F-0.9°C 92% 4.0 mph SSW6.4 kmh SSW 10.0 mph16.1 kmh 29.81 in1009.5 mb 0.01 in0.3 mm 0.00 in/hr0.0 mm/hr 0.01 in0.3 mm
07:20 AM 32.6°F0.3°C 30.5°F-0.8°C 92% 6.0 mph S9.7 kmh S 7.0 mph11.3 kmh 29.81 in1009.5 mb 0.01 in0.3 mm 0.00 in/hr0.0 mm/hr 0.01 in0.3 mm
07:25 AM 32.6°F0.3°C 30.3°F-0.9°C 91% 5.0 mph SSW8.0 kmh SSW 11.0 mph17.7 kmh 29.81 in1009.5 mb 0.01 in0.3 mm 0.00 in/hr0.0 mm/hr 0.01 in0.3 mm
07:30 AM 32.6°F0.3°C 30.3°F-0.9°C 91% 3.0 mph SW4.8 kmh SW 7.0 mph11.3 kmh 29.81 in1009.5 mb 0.01 in0.3 mm 0.00 in/hr0.0 mm/hr 0.01 in0.3 mm
07:36 AM 32.7°F0.4°C 30.4°F-0.9°C 91% 5.0 mph S8.0 kmh S 12.0 mph19.3 kmh 29.80 in1009.1 mb 0.01 in0.3 mm 0.00 in/hr0.0 mm/hr 0.01 in0.3 mm
07:40 AM 32.7°F0.4°C 30.4°F-0.9°C 91% Calm Calm 9.0 mph14.5 kmh 29.80 in1009.1 mb 0.00 in0.0 mm 0.00 in/hr0.0 mm/hr 0.01 in0.3 mm
07:45 AM 32.8°F0.4°C 30.5°F-0.8°C 91% 4.0 mph SW6.4 kmh SW 12.0 mph19.3 kmh 29.80 in1009.1 mb 0.00 in0.0 mm 0.00 in/hr0.0 mm/hr 0.01 in0.3 mm
07:50 AM 32.8°F0.4°C 30.5°F-0.8°C 91% 2.0 mph SSW3.2 kmh SSW 11.0 mph17.7 kmh 29.80 in1009.1 mb 0.00 in0.0 mm 0.00 in/hr0.0 mm/hr 0.01 in0.3 mm
07:55 AM 32.9°F0.5°C 30.6°F-0.8°C 91% 4.0 mph SW6.4 kmh SW 11.0 mph17.7 kmh 29.79 in1008.8 mb 0.00 in0.0 mm 0.00 in/hr0.0 mm/hr 0.01 in0.3 mm
08:00 AM 32.9°F0.5°C 30.6°F-0.8°C 91% 5.0 mph SSW8.0 kmh SSW 6.0 mph9.7 kmh 29.79 in1008.8 mb 0.00 in0.0 mm 0.00 in/hr0.0 mm/hr 0.01 in0.3 mm
08:06 AM 33.0°F0.6°C 30.7°F-0.7°C 91% 4.0 mph S6.4 kmh S 14.0 mph22.5 kmh 29.79 in1008.8 mb 0.00 in0.0 mm 0.00 in/hr0.0 mm/hr 0.01 in0.3 mm
08:10 AM 32.9°F0.5°C 30.6°F-0.8°C 91% 7.0 mph SSW11.3 kmh SSW 7.0 mph11.3 kmh 29.79 in1008.8 mb 0.00 in0.0 mm 0.00 in/hr0.0 mm/hr 0.01 in0.3 mm
08:16 AM 32.9°F0.5°C 30.6°F-0.8°C 91% 6.0 mph SW9.7 kmh SW 14.0 mph22.5 kmh 29.78 in1008.5 mb 0.00 in0.0 mm 0.00 in/hr0.0 mm/hr 0.01 in0.3 mm
08:20 AM 32.9°F0.5°C 30.6°F-0.8°C 91% 5.0 mph S8.0 kmh S 7.0 mph11.3 kmh 29.78 in1008.5 mb 0.00 in0.0 mm 0.00 in/hr0.0 mm/hr 0.01 in0.3 mm
08:25 AM 32.9°F0.5°C 30.6°F-0.8°C 91% 9.0 mph SSW14.5 kmh SSW 10.0 mph16.1 kmh 29.78 in1008.5 mb 0.00 in0.0 mm 0.00 in/hr0.0 mm/hr 0.01 in0.3 mm
08:30 AM 32.8°F0.4°C 30.5°F-0.8°C 91% 8.0 mph SW12.9 kmh SW 11.0 mph17.7 kmh 29.78 in1008.5 mb 0.01 in0.3 mm 0.12 in/hr3.0 mm/hr 0.02 in0.5 mm
08:35 AM 32.8°F0.4°C 30.5°F-0.8°C 91% 11.0 mph SSW17.7 kmh SSW 12.0 mph19.3 kmh 29.78 in1008.5 mb 0.01 in0.3 mm 0.00 in/hr0.0 mm/hr 0.02 in0.5 mm
08:40 AM 32.8°F0.4°C 30.5°F-0.8°C 91% 9.0 mph SW14.5 kmh SW 9.0 mph14.5 kmh 29.78 in1008.5 mb 0.01 in0.3 mm 0.00 in/hr0.0 mm/hr 0.02 in0.5 mm
08:45 AM 32.8°F0.4°C 30.5°F-0.8°C 91% 2.0 mph SW3.2 kmh SW 13.0 mph20.9 kmh 29.79 in1008.8 mb 0.01 in0.3 mm 0.00 in/hr0.0 mm/hr 0.02 in0.5 mm
08:55 AM 32.8°F0.4°C 30.5°F-0.8°C 91% 4.0 mph SW6.4 kmh SW 12.0 mph19.3 kmh 29.78 in1008.5 mb 0.01 in0.3 mm 0.00 in/hr0.0 mm/hr 0.02 in0.5 mm
09:00 AM 32.9°F0.5°C 30.6°F-0.8°C 91% 11.0 mph SW17.7 kmh SW 11.0 mph17.7 kmh 29.78 in1008.5 mb 0.01 in0.3 mm 0.00 in/hr0.0 mm/hr 0.02 in0.5 mm
09:05 AM 32.9°F0.5°C 30.6°F-0.8°C 91% 6.0 mph SW9.7 kmh SW 13.0 mph20.9 kmh 29.78 in1008.5 mb 0.01 in0.3 mm 0.00 in/hr0.0 mm/hr 0.02 in0.5 mm
09:10 AM 32.9°F0.5°C 30.6°F-0.8°C 91% 7.0 mph SSW11.3 kmh SSW 7.0 mph11.3 kmh 29.78 in1008.5 mb 0.01 in0.3 mm 0.00 in/hr0.0 mm/hr 0.02 in0.5 mm
09:15 AM 33.0°F0.6°C 30.7°F-0.7°C 91% 13.0 mph SW20.9 kmh SW 14.0 mph22.5 kmh 29.78 in1008.5 mb 0.01 in0.3 mm 0.00 in/hr0.0 mm/hr 0.02 in0.5 mm
09:20 AM 33.0°F0.6°C 30.7°F-0.7°C 91% 6.0 mph SW9.7 kmh SW 11.0 mph17.7 kmh 29.78 in1008.5 mb 0.01 in0.3 mm 0.00 in/hr0.0 mm/hr 0.02 in0.5 mm
09:25 AM 33.0°F0.6°C 30.7°F-0.7°C 91% 9.0 mph SW14.5 kmh SW 14.0 mph22.5 kmh 29.78 in1008.5 mb 0.01 in0.3 mm 0.00 in/hr0.0 mm/hr 0.02 in0.5 mm
09:30 AM 32.9°F0.5°C 30.6°F-0.8°C 91% 4.0 mph WSW6.4 kmh WSW 8.0 mph12.9 kmh 29.78 in1008.5 mb 0.01 in0.3 mm 0.00 in/hr0.0 mm/hr 0.02 in0.5 mm
09:36 AM 32.9°F0.5°C 30.6°F-0.8°C 91% 10.0 mph SW16.1 kmh SW 17.0 mph27.4 kmh 29.79 in1008.8 mb 0.01 in0.3 mm 0.00 in/hr0.0 mm/hr 0.02 in0.5 mm
09:40 AM 32.9°F0.5°C 30.6°F-0.8°C 91% 5.0 mph WSW8.0 kmh WSW 9.0 mph14.5 kmh 29.79 in1008.8 mb 0.00 in0.0 mm 0.00 in/hr0.0 mm/hr 0.02 in0.5 mm
09:45 AM 32.8°F0.4°C 30.5°F-0.8°C 91% 10.0 mph SW16.1 kmh SW 18.0 mph29.0 kmh 29.79 in1008.8 mb 0.00 in0.0 mm 0.00 in/hr0.0 mm/hr 0.02 in0.5 mm
09:50 AM 32.8°F0.4°C 30.5°F-0.8°C 91% 7.0 mph SW11.3 kmh SW 8.0 mph12.9 kmh 29.79 in1008.8 mb 0.00 in0.0 mm 0.00 in/hr0.0 mm/hr 0.02 in0.5 mm
09:55 AM 32.6°F0.3°C 30.3°F-0.9°C 91% 1.0 mph WSW1.6 kmh WSW 18.0 mph29.0 kmh 29.80 in1009.1 mb 0.01 in0.3 mm 0.12 in/hr3.0 mm/hr 0.03 in0.8 mm
10:01 AM 32.6°F0.3°C 30.5°F-0.8°C 92% 3.0 mph W4.8 kmh W 10.0 mph16.1 kmh 29.80 in1009.1 mb 0.01 in0.3 mm 0.00 in/hr0.0 mm/hr 0.03 in0.8 mm
10:05 AM 32.6°F0.3°C 30.5°F-0.8°C 92% 4.0 mph WSW6.4 kmh WSW 15.0 mph24.1 kmh 29.80 in1009.1 mb 0.01 in0.3 mm 0.00 in/hr0.0 mm/hr 0.03 in0.8 mm
10:10 AM 32.7°F0.4°C 30.6°F-0.8°C 92% 5.0 mph WNW8.0 kmh WNW 15.0 mph24.1 kmh 29.80 in1009.1 mb 0.01 in0.3 mm 0.00 in/hr0.0 mm/hr 0.03 in0.8 mm
10:15 AM 32.8°F0.4°C 30.7°F-0.7°C 92% 10.0 mph WNW16.1 kmh WNW 15.0 mph24.1 kmh 29.80 in1009.1 mb 0.01 in0.3 mm 0.00 in/hr0.0 mm/hr 0.03 in0.8 mm
10:20 AM 32.9°F0.5°C 30.8°F-0.7°C 92% 1.0 mph WSW1.6 kmh WSW 13.0 mph20.9 kmh 29.80 in1009.1 mb 0.01 in0.3 mm 0.00 in/hr0.0 mm/hr 0.03 in0.8 mm
10:26 AM 32.9°F0.5°C 30.8°F-0.7°C 92% 4.0 mph W6.4 kmh W 13.0 mph20.9 kmh 29.81 in1009.5 mb 0.01 in0.3 mm 0.00 in/hr0.0 mm/hr 0.03 in0.8 mm
10:30 AM 33.0°F0.6°C 30.7°F-0.7°C 91% 3.0 mph WSW4.8 kmh WSW 13.0 mph20.9 kmh 29.81 in1009.5 mb 0.01 in0.3 mm 0.00 in/hr0.0 mm/hr 0.03 in0.8 mm
10:35 AM 33.0°F0.6°C 30.7°F-0.7°C 91% 8.0 mph SW12.9 kmh SW 15.0 mph24.1 kmh 29.81 in1009.5 mb 0.01 in0.3 mm 0.00 in/hr0.0 mm/hr 0.03 in0.8 mm
10:40 AM 33.1°F0.6°C 30.8°F-0.7°C 91% 6.0 mph SW9.7 kmh SW 11.0 mph17.7 kmh 29.81 in1009.5 mb 0.01 in0.3 mm 0.00 in/hr0.0 mm/hr 0.03 in0.8 mm
10:45 AM 33.1°F0.6°C 30.5°F-0.8°C 90% 8.0 mph WSW12.9 kmh WSW 14.0 mph22.5 kmh 29.81 in1009.5 mb 0.01 in0.3 mm 0.00 in/hr0.0 mm/hr 0.03 in0.8 mm
10:50 AM 33.2°F0.7°C 30.6°F-0.8°C 90% 4.0 mph WSW6.4 kmh WSW 14.0 mph22.5 kmh 29.81 in1009.5 mb 0.01 in0.3 mm 0.00 in/hr0.0 mm/hr 0.03 in0.8 mm
10:55 AM 33.3°F0.7°C 30.4°F-0.9°C 89% 4.0 mph WSW6.4 kmh WSW 16.0 mph25.7 kmh 29.82 in1009.8 mb 0.01 in0.3 mm 0.00 in/hr0.0 mm/hr 0.03 in0.8 mm
11:00 AM 33.3°F0.7°C 30.1°F-1.1°C 88% 6.0 mph SW9.7 kmh SW 6.0 mph9.7 kmh 29.82 in1009.8 mb 0.00 in0.0 mm 0.00 in/hr0.0 mm/hr 0.03 in0.8 mm
11:05 AM 33.3°F0.7°C 30.1°F-1.1°C 88% 13.0 mph SW20.9 kmh SW 17.0 mph27.4 kmh 29.82 in1009.8 mb 0.00 in0.0 mm 0.00 in/hr0.0 mm/hr 0.03 in0.8 mm
11:11 AM 33.3°F0.7°C 29.9°F-1.2°C 87% 6.0 mph SW9.7 kmh SW 23.0 mph37.0 kmh 29.81 in1009.5 mb 0.00 in0.0 mm 0.00 in/hr0.0 mm/hr 0.03 in0.8 mm
11:15 AM 33.3°F0.7°C 29.9°F-1.2°C 87% 10.0 mph W16.1 kmh W 23.0 mph37.0 kmh 29.82 in1009.8 mb 0.00 in0.0 mm 0.00 in/hr0.0 mm/hr 0.03 in0.8 mm
11:20 AM 33.2°F0.7°C 29.8°F-1.2°C 87% 2.0 mph WSW3.2 kmh WSW 11.0 mph17.7 kmh 29.83 in1010.2 mb 0.00 in0.0 mm 0.00 in/hr0.0 mm/hr 0.03 in0.8 mm
11:25 AM 33.3°F0.7°C 29.9°F-1.2°C 87% 6.0 mph SW9.7 kmh SW 18.0 mph29.0 kmh 29.82 in1009.8 mb 0.00 in0.0 mm 0.00 in/hr0.0 mm/hr 0.03 in0.8 mm
11:31 AM 33.2°F0.7°C 29.8°F-1.2°C 87% 6.0 mph W9.7 kmh W 15.0 mph24.1 kmh 29.83 in1010.2 mb 0.00 in0.0 mm 0.00 in/hr0.0 mm/hr 0.03 in0.8 mm
11:35 AM 33.3°F0.7°C 29.6°F-1.3°C 86% 2.0 mph SW3.2 kmh SW 17.0 mph27.4 kmh 29.83 in1010.2 mb 0.00 in0.0 mm 0.00 in/hr0.0 mm/hr 0.03 in0.8 mm
11:40 AM 33.1°F0.6°C 29.4°F-1.4°C 86% 8.0 mph WSW12.9 kmh WSW 16.0 mph25.7 kmh 29.84 in1010.5 mb 0.00 in0.0 mm 0.00 in/hr0.0 mm/hr 0.03 in0.8 mm
11:45 AM 33.0°F0.6°C 29.3°F-1.5°C 86% 18.0 mph W29.0 kmh W 22.0 mph35.4 kmh 29.84 in1010.5 mb 0.00 in0.0 mm 0.00 in/hr0.0 mm/hr 0.03 in0.8 mm
11:50 AM 32.9°F0.5°C 28.9°F-1.7°C 85% 10.0 mph WSW16.1 kmh WSW 19.0 mph30.6 kmh 29.84 in1010.5 mb 0.00 in0.0 mm 0.00 in/hr0.0 mm/hr 0.03 in0.8 mm
11:55 AM 32.7°F0.4°C 28.4°F-2.0°C 84% 15.0 mph W24.1 kmh W 26.0 mph41.8 kmh 29.85 in1010.8 mb 0.00 in0.0 mm 0.00 in/hr0.0 mm/hr 0.03 in0.8 mm
12:00 PM 32.7°F0.4°C 28.4°F-2.0°C 84% 6.0 mph NW9.7 kmh NW 16.0 mph25.7 kmh 29.85 in1010.8 mb 0.00 in0.0 mm 0.00 in/hr0.0 mm/hr 0.03 in0.8 mm
12:05 PM 32.9°F0.5°C 28.3°F-2.1°C 83% 14.0 mph W22.5 kmh W 26.0 mph41.8 kmh 29.85 in1010.8 mb 0.00 in0.0 mm 0.00 in/hr0.0 mm/hr 0.03 in0.8 mm
12:16 PM 33.3°F0.7°C 28.4°F-2.0°C 82% 9.0 mph NW14.5 kmh NW 23.0 mph37.0 kmh 29.86 in1011.2 mb 0.00 in0.0 mm 0.00 in/hr0.0 mm/hr 0.03 in0.8 mm
12:20 PM 33.6°F0.9°C 28.1°F-2.2°C 80% 5.0 mph W8.0 kmh W 23.0 mph37.0 kmh 29.86 in1011.2 mb 0.00 in0.0 mm 0.00 in/hr0.0 mm/hr 0.03 in0.8 mm
12:25 PM 33.9°F1.1°C 28.1°F-2.2°C 79% 15.0 mph WSW24.1 kmh WSW 31.0 mph49.9 kmh 29.86 in1011.2 mb 0.00 in0.0 mm 0.00 in/hr0.0 mm/hr 0.03 in0.8 mm
12:30 PM 34.1°F1.2°C 27.3°F-2.6°C 76% 10.0 mph WNW16.1 kmh WNW 23.0 mph37.0 kmh 29.86 in1011.2 mb 0.00 in0.0 mm 0.00 in/hr0.0 mm/hr 0.03 in0.8 mm
12:35 PM 34.3°F1.3°C 27.2°F-2.7°C 75% 18.0 mph WSW29.0 kmh WSW 28.0 mph45.1 kmh 29.87 in1011.5 mb 0.00 in0.0 mm 0.00 in/hr0.0 mm/hr 0.03 in0.8 mm
12:41 PM 34.3°F1.3°C 26.6°F-3.0°C 73% 13.0 mph WSW20.9 kmh WSW 22.0 mph35.4 kmh 29.87 in1011.5 mb 0.00 in0.0 mm 0.00 in/hr0.0 mm/hr 0.03 in0.8 mm
12:45 PM 34.4°F1.3°C 25.6°F-3.6°C 70% 15.0 mph W24.1 kmh W 31.0 mph49.9 kmh 29.87 in1011.5 mb 0.00 in0.0 mm 0.00 in/hr0.0 mm/hr 0.03 in0.8 mm
12:50 PM 34.5°F1.4°C 26.1°F-3.3°C 71% 24.0 mph WNW38.6 kmh WNW 24.0 mph38.6 kmh 29.88 in1011.9 mb 0.00 in0.0 mm 0.00 in/hr0.0 mm/hr 0.03 in0.8 mm
12:55 PM 34.8°F1.6°C 26.4°F-3.1°C 71% 7.0 mph WSW11.3 kmh WSW 24.0 mph38.6 kmh 29.88 in1011.9 mb 0.00 in0.0 mm 0.00 in/hr0.0 mm/hr 0.03 in0.8 mm
01:00 PM 34.8°F1.6°C 26.0°F-3.3°C 70% 7.0 mph W11.3 kmh W 22.0 mph35.4 kmh 29.88 in1011.9 mb 0.00 in0.0 mm 0.00 in/hr0.0 mm/hr 0.03 in0.8 mm
01:05 PM 35.0°F1.7°C 26.6°F-3.0°C 71% 12.0 mph WNW19.3 kmh WNW 33.0 mph53.1 kmh 29.88 in1011.9 mb 0.00 in0.0 mm 0.00 in/hr0.0 mm/hr 0.03 in0.8 mm
01:10 PM 35.2°F1.8°C 26.4°F-3.1°C 70% 22.0 mph WSW35.4 kmh WSW 22.0 mph35.4 kmh 29.89 in1012.2 mb 0.00 in0.0 mm 0.00 in/hr0.0 mm/hr 0.03 in0.8 mm
01:16 PM 35.3°F1.8°C 25.5°F-3.6°C 67% 21.0 mph WNW33.8 kmh WNW 31.0 mph49.9 kmh 29.89 in1012.2 mb 0.00 in0.0 mm 0.00 in/hr0.0 mm/hr 0.03 in0.8 mm
01:20 PM 35.3°F1.8°C 25.5°F-3.6°C 67% 13.0 mph W20.9 kmh W 15.0 mph24.1 kmh 29.89 in1012.2 mb 0.00 in0.0 mm 0.00 in/hr0.0 mm/hr 0.03 in0.8 mm
01:25 PM 35.4°F1.9°C 25.9°F-3.4°C 68% 6.0 mph WSW9.7 kmh WSW 23.0 mph37.0 kmh 29.88 in1011.9 mb 0.00 in0.0 mm 0.00 in/hr0.0 mm/hr 0.03 in0.8 mm
01:31 PM 35.6°F2.0°C 26.1°F-3.3°C 68% 12.0 mph WNW19.3 kmh WNW 19.0 mph30.6 kmh 29.89 in1012.2 mb 0.00 in0.0 mm 0.00 in/hr0.0 mm/hr 0.03 in0.8 mm
01:35 PM 35.4°F1.9°C 25.6°F-3.6°C 67% 12.0 mph W19.3 kmh W 24.0 mph38.6 kmh 29.88 in1011.9 mb 0.00 in0.0 mm 0.00 in/hr0.0 mm/hr 0.03 in0.8 mm
01:45 PM 35.4°F1.9°C 24.8°F-4.0°C 65% 10.0 mph W16.1 kmh W 22.0 mph35.4 kmh 29.89 in1012.2 mb 0.00 in0.0 mm 0.00 in/hr0.0 mm/hr 0.03 in0.8 mm
01:50 PM 35.6°F2.0°C 25.0°F-3.9°C 65% 6.0 mph NW9.7 kmh NW 18.0 mph29.0 kmh 29.90 in1012.5 mb 0.00 in0.0 mm 0.00 in/hr0.0 mm/hr 0.03 in0.8 mm
01:55 PM 35.7°F2.1°C 24.4°F-4.2°C 63% 12.0 mph W19.3 kmh W 28.0 mph45.1 kmh 29.90 in1012.5 mb 0.00 in0.0 mm 0.00 in/hr0.0 mm/hr 0.03 in0.8 mm
02:00 PM 35.3°F1.8°C 23.6°F-4.7°C 62% 13.0 mph WSW20.9 kmh WSW 21.0 mph33.8 kmh 29.90 in1012.5 mb 0.00 in0.0 mm 0.00 in/hr0.0 mm/hr 0.03 in0.8 mm
02:05 PM 35.3°F1.8°C 23.6°F-4.7°C 62% 14.0 mph WSW22.5 kmh WSW 25.0 mph40.2 kmh 29.91 in1012.9 mb 0.00 in0.0 mm 0.00 in/hr0.0 mm/hr 0.03 in0.8 mm
02:11 PM 35.3°F1.8°C 23.6°F-4.7°C 62% 20.0 mph WSW32.2 kmh WSW 20.0 mph32.2 kmh 29.91 in1012.9 mb 0.00 in0.0 mm 0.00 in/hr0.0 mm/hr 0.03 in0.8 mm
02:16 PM 35.0°F1.7°C 22.5°F-5.3°C 60% 17.0 mph WNW27.4 kmh WNW 25.0 mph40.2 kmh 29.91 in1012.9 mb 0.00 in0.0 mm 0.00 in/hr0.0 mm/hr 0.03 in0.8 mm
02:21 PM 35.3°F1.8°C 24.0°F-4.4°C 63% 9.0 mph W14.5 kmh W 17.0 mph27.4 kmh 29.92 in1013.2 mb 0.00 in0.0 mm 0.00 in/hr0.0 mm/hr 0.03 in0.8 mm
02:25 PM 35.5°F1.9°C 23.4°F-4.8°C 61% 9.0 mph NW14.5 kmh NW 17.0 mph27.4 kmh 29.92 in1013.2 mb 0.00 in0.0 mm 0.00 in/hr0.0 mm/hr 0.03 in0.8 mm
02:30 PM 35.3°F1.8°C 22.8°F-5.1°C 60% 9.0 mph WSW14.5 kmh WSW 17.0 mph27.4 kmh 29.92 in1013.2 mb 0.00 in0.0 mm 0.00 in/hr0.0 mm/hr 0.03 in0.8 mm
02:36 PM 35.1°F1.7°C 23.4°F-4.8°C 62% 11.0 mph SW17.7 kmh SW 27.0 mph43.5 kmh 29.92 in1013.2 mb 0.00 in0.0 mm 0.00 in/hr0.0 mm/hr 0.03 in0.8 mm
02:40 PM 35.1°F1.7°C 22.6°F-5.2°C 60% 11.0 mph W17.7 kmh W 20.0 mph32.2 kmh 29.93 in1013.5 mb 0.00 in0.0 mm 0.00 in/hr0.0 mm/hr 0.03 in0.8 mm
02:45 PM 35.1°F1.7°C 23.4°F-4.8°C 62% 17.0 mph WSW27.4 kmh WSW 28.0 mph45.1 kmh 29.94 in1013.9 mb 0.00 in0.0 mm 0.00 in/hr0.0 mm/hr 0.03 in0.8 mm
02:50 PM 35.1°F1.7°C 23.4°F-4.8°C 62% 19.0 mph W30.6 kmh W 19.0 mph30.6 kmh 29.94 in1013.9 mb 0.00 in0.0 mm 0.00 in/hr0.0 mm/hr 0.03 in0.8 mm
02:55 PM 35.0°F1.7°C 23.3°F-4.8°C 62% 4.0 mph W6.4 kmh W 27.0 mph43.5 kmh 29.95 in1014.2 mb 0.00 in0.0 mm 0.00 in/hr0.0 mm/hr 0.03 in0.8 mm
03:00 PM 34.9°F1.6°C 23.2°F-4.9°C 62% 10.0 mph W16.1 kmh W 23.0 mph37.0 kmh 29.95 in1014.2 mb 0.00 in0.0 mm 0.00 in/hr0.0 mm/hr 0.03 in0.8 mm
03:06 PM 34.4°F1.3°C 22.4°F-5.3°C 61% 9.0 mph WSW14.5 kmh WSW 25.0 mph40.2 kmh 29.95 in1014.2 mb 0.00 in0.0 mm 0.00 in/hr0.0 mm/hr 0.03 in0.8 mm
03:10 PM 34.2°F1.2°C 22.6°F-5.2°C 62% 6.0 mph WSW9.7 kmh WSW 12.0 mph19.3 kmh 29.95 in1014.2 mb 0.00 in0.0 mm 0.00 in/hr0.0 mm/hr 0.03 in0.8 mm
03:16 PM 34.3°F1.3°C 23.0°F-5.0°C 63% 9.0 mph W14.5 kmh W 18.0 mph29.0 kmh 29.96 in1014.6 mb 0.00 in0.0 mm 0.00 in/hr0.0 mm/hr 0.03 in0.8 mm
03:20 PM 34.0°F1.1°C 22.7°F-5.2°C 63% 7.0 mph W11.3 kmh W 13.0 mph20.9 kmh 29.96 in1014.6 mb 0.00 in0.0 mm 0.00 in/hr0.0 mm/hr 0.03 in0.8 mm
03:25 PM 33.7°F0.9°C 20.9°F-6.2°C 59% 11.0 mph WSW17.7 kmh WSW 23.0 mph37.0 kmh 29.97 in1014.9 mb 0.00 in0.0 mm 0.00 in/hr0.0 mm/hr 0.03 in0.8 mm
03:30 PM 34.0°F1.1°C 21.2°F-6.0°C 59% 14.0 mph W22.5 kmh W 14.0 mph22.5 kmh 29.97 in1014.9 mb 0.00 in0.0 mm 0.00 in/hr0.0 mm/hr 0.03 in0.8 mm
03:35 PM 34.2°F1.2°C 20.6°F-6.3°C 57% 12.0 mph SW19.3 kmh SW 24.0 mph38.6 kmh 29.97 in1014.9 mb 0.00 in0.0 mm 0.00 in/hr0.0 mm/hr 0.03 in0.8 mm
03:40 PM 33.6°F0.9°C 20.4°F-6.4°C 58% 5.0 mph W8.0 kmh W 9.0 mph14.5 kmh 29.98 in1015.2 mb 0.00 in0.0 mm 0.00 in/hr0.0 mm/hr 0.03 in0.8 mm
03:45 PM 33.5°F0.8°C 20.7°F-6.3°C 59% 15.0 mph WSW24.1 kmh WSW 22.0 mph35.4 kmh 29.98 in1015.2 mb 0.00 in0.0 mm 0.00 in/hr0.0 mm/hr 0.03 in0.8 mm
03:51 PM 33.5°F0.8°C 20.3°F-6.5°C 58% 10.0 mph W16.1 kmh W 19.0 mph30.6 kmh 29.99 in1015.6 mb 0.00 in0.0 mm 0.00 in/hr0.0 mm/hr 0.03 in0.8 mm
03:55 PM 33.4°F0.8°C 20.6°F-6.3°C 59% 11.0 mph W17.7 kmh W 26.0 mph41.8 kmh 29.99 in1015.6 mb 0.00 in0.0 mm 0.00 in/hr0.0 mm/hr 0.03 in0.8 mm
04:00 PM 33.0°F0.6°C 20.3°F-6.5°C 59% 3.0 mph WSW4.8 kmh WSW 13.0 mph20.9 kmh 29.99 in1015.6 mb 0.00 in0.0 mm 0.00 in/hr0.0 mm/hr 0.03 in0.8 mm
04:05 PM 33.3°F0.7°C 20.9°F-6.2°C 60% 4.0 mph W6.4 kmh W 21.0 mph33.8 kmh 30.00 in1015.9 mb 0.00 in0.0 mm 0.00 in/hr0.0 mm/hr 0.03 in0.8 mm
04:10 PM 33.4°F0.8°C 21.0°F-6.1°C 60% 5.0 mph WSW8.0 kmh WSW 10.0 mph16.1 kmh 30.00 in1015.9 mb 0.00 in0.0 mm 0.00 in/hr0.0 mm/hr 0.03 in0.8 mm
04:16 PM 33.5°F0.8°C 20.7°F-6.3°C 59% 11.0 mph SW17.7 kmh SW 17.0 mph27.4 kmh 30.00 in1015.9 mb 0.00 in0.0 mm 0.00 in/hr0.0 mm/hr 0.03 in0.8 mm
04:20 PM 33.4°F0.8°C 20.6°F-6.3°C 59% 6.0 mph SW9.7 kmh SW 16.0 mph25.7 kmh 30.00 in1015.9 mb 0.00 in0.0 mm 0.00 in/hr0.0 mm/hr 0.03 in0.8 mm
04:26 PM 33.0°F0.6°C 19.9°F-6.7°C 58% 4.0 mph WSW6.4 kmh WSW 19.0 mph30.6 kmh 30.01 in1016.3 mb 0.00 in0.0 mm 0.00 in/hr0.0 mm/hr 0.03 in0.8 mm
04:31 PM 32.7°F0.4°C 19.6°F-6.9°C 58% 4.0 mph WSW6.4 kmh WSW 19.0 mph30.6 kmh 30.01 in1016.3 mb 0.00 in0.0 mm 0.00 in/hr0.0 mm/hr 0.03 in0.8 mm
04:35 PM 32.5°F0.3°C 19.4°F-7.0°C 58% 10.0 mph WSW16.1 kmh WSW 23.0 mph37.0 kmh 30.01 in1016.3 mb 0.00 in0.0 mm 0.00 in/hr0.0 mm/hr 0.03 in0.8 mm
04:40 PM 32.5°F0.3°C 19.8°F-6.8°C 59% 4.0 mph WSW6.4 kmh WSW 9.0 mph14.5 kmh 30.02 in1016.6 mb 0.00 in0.0 mm 0.00 in/hr0.0 mm/hr 0.03 in0.8 mm
04:45 PM 32.5°F0.3°C 20.2°F-6.6°C 60% 4.0 mph W6.4 kmh W 15.0 mph24.1 kmh 30.03 in1016.9 mb 0.00 in0.0 mm 0.00 in/hr0.0 mm/hr 0.03 in0.8 mm
04:51 PM 32.3°F0.2°C 19.6°F-6.9°C 59% 9.0 mph W14.5 kmh W 20.0 mph32.2 kmh 30.03 in1016.9 mb 0.00 in0.0 mm 0.00 in/hr0.0 mm/hr 0.03 in0.8 mm
04:55 PM 32.2°F0.1°C 19.5°F-6.9°C 59% 13.0 mph W20.9 kmh W 20.0 mph32.2 kmh 30.03 in1016.9 mb 0.00 in0.0 mm 0.00 in/hr0.0 mm/hr 0.03 in0.8 mm
05:00 PM 32.0°F0.0°C 20.1°F-6.6°C 61% 18.0 mph NW29.0 kmh NW 18.0 mph29.0 kmh 30.03 in1016.9 mb 0.00 in0.0 mm 0.00 in/hr0.0 mm/hr 0.03 in0.8 mm
05:05 PM 31.9°F-0.1°C 20.0°F-6.7°C 61% 4.0 mph WSW6.4 kmh WSW 24.0 mph38.6 kmh 30.03 in1016.9 mb 0.00 in0.0 mm 0.00 in/hr0.0 mm/hr 0.03 in0.8 mm
05:11 PM 31.7°F-0.2°C 20.2°F-6.6°C 62% 7.0 mph NW11.3 kmh NW 13.0 mph20.9 kmh 30.03 in1016.9 mb 0.00 in0.0 mm 0.00 in/hr0.0 mm/hr 0.03 in0.8 mm
05:15 PM 31.6°F-0.2°C 20.1°F-6.6°C 62% 2.0 mph WSW3.2 kmh WSW 18.0 mph29.0 kmh 30.04 in1017.3 mb 0.00 in0.0 mm 0.00 in/hr0.0 mm/hr 0.03 in0.8 mm
05:20 PM 31.4°F-0.3°C 20.7°F-6.3°C 64% 2.0 mph W3.2 kmh W 7.0 mph11.3 kmh 30.04 in1017.3 mb 0.00 in0.0 mm 0.00 in/hr0.0 mm/hr 0.03 in0.8 mm
05:26 PM 31.1°F-0.5°C 20.4°F-6.4°C 64% 6.0 mph WNW9.7 kmh WNW 12.0 mph19.3 kmh 30.04 in1017.3 mb 0.00 in0.0 mm 0.00 in/hr0.0 mm/hr 0.03 in0.8 mm
05:30 PM 30.9°F-0.6°C 20.5°F-6.4°C 65% 3.0 mph SW4.8 kmh SW 5.0 mph8.0 kmh 30.05 in1017.6 mb 0.00 in0.0 mm 0.00 in/hr0.0 mm/hr 0.03 in0.8 mm
05:35 PM 30.6°F-0.8°C 20.3°F-6.5°C 65% 2.0 mph WSW3.2 kmh WSW 12.0 mph19.3 kmh 30.05 in1017.6 mb 0.00 in0.0 mm 0.00 in/hr0.0 mm/hr 0.03 in0.8 mm
05:40 PM 30.5°F-0.8°C 20.5°F-6.4°C 66% Calm Calm 5.0 mph8.0 kmh 30.05 in1017.6 mb 0.00 in0.0 mm 0.00 in/hr0.0 mm/hr 0.03 in0.8 mm
05:46 PM 30.3°F-0.9°C 20.3°F-6.5°C 66% 2.0 mph SW3.2 kmh SW 10.0 mph16.1 kmh 30.06 in1017.9 mb 0.00 in0.0 mm 0.00 in/hr0.0 mm/hr 0.03 in0.8 mm
05:50 PM 30.1°F-1.1°C 20.5°F-6.4°C 67% 2.0 mph W3.2 kmh W 10.0 mph16.1 kmh 30.05 in1017.6 mb 0.00 in0.0 mm 0.00 in/hr0.0 mm/hr 0.03 in0.8 mm
05:55 PM 29.9°F-1.2°C 20.6°F-6.3°C 68% 6.0 mph SW9.7 kmh SW 13.0 mph20.9 kmh 30.06 in1017.9 mb 0.00 in0.0 mm 0.00 in/hr0.0 mm/hr 0.03 in0.8 mm
06:01 PM 29.8°F-1.2°C 20.9°F-6.2°C 69% 5.0 mph SW8.0 kmh SW 11.0 mph17.7 kmh 30.06 in1017.9 mb 0.00 in0.0 mm 0.00 in/hr0.0 mm/hr 0.03 in0.8 mm
06:05 PM 29.7°F-1.3°C 20.8°F-6.2°C 69% 7.0 mph SW11.3 kmh SW 11.0 mph17.7 kmh 30.06 in1017.9 mb 0.00 in0.0 mm 0.00 in/hr0.0 mm/hr 0.03 in0.8 mm
06:10 PM 29.6°F-1.3°C 20.7°F-6.3°C 69% 4.0 mph W6.4 kmh W 5.0 mph8.0 kmh 30.06 in1017.9 mb 0.00 in0.0 mm 0.00 in/hr0.0 mm/hr 0.03 in0.8 mm
06:16 PM 29.4°F-1.4°C 20.8°F-6.2°C 70% 7.0 mph SW11.3 kmh SW 12.0 mph19.3 kmh 30.07 in1018.3 mb 0.00 in0.0 mm 0.00 in/hr0.0 mm/hr 0.03 in0.8 mm
06:20 PM 29.4°F-1.4°C 20.5°F-6.4°C 69% 2.0 mph W3.2 kmh W 7.0 mph11.3 kmh 30.07 in1018.3 mb 0.00 in0.0 mm 0.00 in/hr0.0 mm/hr 0.03 in0.8 mm
06:25 PM 29.4°F-1.4°C 20.5°F-6.4°C 69% 5.0 mph W8.0 kmh W 11.0 mph17.7 kmh 30.07 in1018.3 mb 0.00 in0.0 mm 0.00 in/hr0.0 mm/hr 0.03 in0.8 mm
06:30 PM 29.3°F-1.5°C 20.4°F-6.4°C 69% 4.0 mph SW6.4 kmh SW 11.0 mph17.7 kmh 30.08 in1018.6 mb 0.00 in0.0 mm 0.00 in/hr0.0 mm/hr 0.03 in0.8 mm
06:35 PM 29.2°F-1.6°C 20.7°F-6.3°C 70% 5.0 mph WSW8.0 kmh WSW 13.0 mph20.9 kmh 30.08 in1018.6 mb 0.00 in0.0 mm 0.00 in/hr0.0 mm/hr 0.03 in0.8 mm
06:40 PM 29.1°F-1.6°C 20.6°F-6.3°C 70% 4.0 mph SW6.4 kmh SW 12.0 mph19.3 kmh 30.08 in1018.6 mb 0.00 in0.0 mm 0.00 in/hr0.0 mm/hr 0.03 in0.8 mm
06:45 PM 29.1°F-1.6°C 20.6°F-6.3°C 70% 3.0 mph W4.8 kmh W 16.0 mph25.7 kmh 30.09 in1019.0 mb 0.00 in0.0 mm 0.00 in/hr0.0 mm/hr 0.03 in0.8 mm
06:50 PM 29.0°F-1.7°C 20.5°F-6.4°C 70% 9.0 mph WSW14.5 kmh WSW 11.0 mph17.7 kmh 30.09 in1019.0 mb 0.00 in0.0 mm 0.00 in/hr0.0 mm/hr 0.03 in0.8 mm
06:55 PM 29.0°F-1.7°C 20.1°F-6.6°C 69% 5.0 mph W8.0 kmh W 11.0 mph17.7 kmh 30.09 in1019.0 mb 0.00 in0.0 mm 0.00 in/hr0.0 mm/hr 0.03 in0.8 mm
07:00 PM 29.0°F-1.7°C 20.1°F-6.6°C 69% 5.0 mph W8.0 kmh W 10.0 mph16.1 kmh 30.09 in1019.0 mb 0.00 in0.0 mm 0.00 in/hr0.0 mm/hr 0.03 in0.8 mm
07:05 PM 29.0°F-1.7°C 19.8°F-6.8°C 68% 3.0 mph W4.8 kmh W 20.0 mph32.2 kmh 30.09 in1019.0 mb 0.00 in0.0 mm 0.00 in/hr0.0 mm/hr 0.03 in0.8 mm
07:10 PM 28.9°F-1.7°C 20.0°F-6.7°C 69% 2.0 mph WSW3.2 kmh WSW 5.0 mph8.0 kmh 30.10 in1019.3 mb 0.00 in0.0 mm 0.00 in/hr0.0 mm/hr 0.03 in0.8 mm
07:16 PM 28.8°F-1.8°C 19.6°F-6.9°C 68% Calm Calm 15.0 mph24.1 kmh 30.10 in1019.3 mb 0.00 in0.0 mm 0.00 in/hr0.0 mm/hr 0.03 in0.8 mm
07:21 PM 28.7°F-1.8°C 19.8°F-6.8°C 69% 9.0 mph WSW14.5 kmh WSW 9.0 mph14.5 kmh 30.10 in1019.3 mb 0.00 in0.0 mm 0.00 in/hr0.0 mm/hr 0.03 in0.8 mm
07:25 PM 28.5°F-1.9°C 19.6°F-6.9°C 69% 4.0 mph WSW6.4 kmh WSW 9.0 mph14.5 kmh 30.10 in1019.3 mb 0.00 in0.0 mm 0.00 in/hr0.0 mm/hr 0.03 in0.8 mm
07:31 PM 28.4°F-2.0°C 19.9°F-6.7°C 70% 3.0 mph W4.8 kmh W 11.0 mph17.7 kmh 30.10 in1019.3 mb 0.00 in0.0 mm 0.00 in/hr0.0 mm/hr 0.03 in0.8 mm
07:36 PM 28.4°F-2.0°C 19.5°F-6.9°C 69% 12.0 mph SSW19.3 kmh SSW 12.0 mph19.3 kmh 30.10 in1019.3 mb 0.00 in0.0 mm 0.00 in/hr0.0 mm/hr 0.03 in0.8 mm
07:40 PM 28.4°F-2.0°C 19.5°F-6.9°C 69% 2.0 mph SSW3.2 kmh SSW 5.0 mph8.0 kmh 30.10 in1019.3 mb 0.00 in0.0 mm 0.00 in/hr0.0 mm/hr 0.03 in0.8 mm
07:45 PM 28.4°F-2.0°C 19.5°F-6.9°C 69% 3.0 mph WSW4.8 kmh WSW 19.0 mph30.6 kmh 30.10 in1019.3 mb 0.00 in0.0 mm 0.00 in/hr0.0 mm/hr 0.03 in0.8 mm
07:50 PM 28.4°F-2.0°C 19.5°F-6.9°C 69% 2.0 mph WSW3.2 kmh WSW 7.0 mph11.3 kmh 30.10 in1019.3 mb 0.00 in0.0 mm 0.00 in/hr0.0 mm/hr 0.03 in0.8 mm
07:55 PM 28.3°F-2.1°C 19.5°F-6.9°C 69% 3.0 mph WSW4.8 kmh WSW 12.0 mph19.3 kmh 30.10 in1019.3 mb 0.00 in0.0 mm 0.00 in/hr0.0 mm/hr 0.03 in0.8 mm
08:01 PM 28.2°F-2.1°C 19.7°F-6.8°C 70% 3.0 mph WSW4.8 kmh WSW 10.0 mph16.1 kmh 30.11 in1019.6 mb 0.00 in0.0 mm 0.00 in/hr0.0 mm/hr 0.03 in0.8 mm
08:05 PM 28.2°F-2.1°C 19.7°F-6.8°C 70% 5.0 mph WSW8.0 kmh WSW 13.0 mph20.9 kmh 30.11 in1019.6 mb 0.00 in0.0 mm 0.00 in/hr0.0 mm/hr 0.03 in0.8 mm
08:11 PM 28.3°F-2.1°C 20.1°F-6.6°C 71% 5.0 mph WSW8.0 kmh WSW 11.0 mph17.7 kmh 30.11 in1019.6 mb 0.00 in0.0 mm 0.00 in/hr0.0 mm/hr 0.03 in0.8 mm
08:15 PM 28.3°F-2.1°C 20.1°F-6.6°C 71% 3.0 mph SW4.8 kmh SW 11.0 mph17.7 kmh 30.11 in1019.6 mb 0.00 in0.0 mm 0.00 in/hr0.0 mm/hr 0.03 in0.8 mm
08:20 PM 28.3°F-2.1°C 20.4°F-6.4°C 72% 3.0 mph SW4.8 kmh SW 4.0 mph6.4 kmh 30.11 in1019.6 mb 0.00 in0.0 mm 0.00 in/hr0.0 mm/hr 0.03 in0.8 mm
08:25 PM 28.1°F-2.2°C 20.3°F-6.5°C 72% 4.0 mph WSW6.4 kmh WSW 12.0 mph19.3 kmh 30.11 in1019.6 mb 0.00 in0.0 mm 0.00 in/hr0.0 mm/hr 0.03 in0.8 mm
08:31 PM 28.1°F-2.2°C 20.6°F-6.3°C 73% 2.0 mph WSW3.2 kmh WSW 7.0 mph11.3 kmh 30.11 in1019.6 mb 0.00 in0.0 mm 0.00 in/hr0.0 mm/hr 0.03 in0.8 mm
08:35 PM 28.1°F-2.2°C 20.3°F-6.5°C 72% 12.0 mph WSW19.3 kmh WSW 16.0 mph25.7 kmh 30.11 in1019.6 mb 0.00 in0.0 mm 0.00 in/hr0.0 mm/hr 0.03 in0.8 mm
08:40 PM 28.1°F-2.2°C 20.3°F-6.5°C 72% 4.0 mph W6.4 kmh W 8.0 mph12.9 kmh 30.11 in1019.6 mb 0.00 in0.0 mm 0.00 in/hr0.0 mm/hr 0.03 in0.8 mm
08:46 PM 28.1°F-2.2°C 20.3°F-6.5°C 72% 6.0 mph SW9.7 kmh SW 16.0 mph25.7 kmh 30.11 in1019.6 mb 0.00 in0.0 mm 0.00 in/hr0.0 mm/hr 0.03 in0.8 mm
08:50 PM 28.2°F-2.1°C 20.4°F-6.4°C 72% 7.0 mph SW11.3 kmh SW 11.0 mph17.7 kmh 30.11 in1019.6 mb 0.00 in0.0 mm 0.00 in/hr0.0 mm/hr 0.03 in0.8 mm
08:56 PM 28.2°F-2.1°C 20.4°F-6.4°C 72% 6.0 mph SW9.7 kmh SW 13.0 mph20.9 kmh 30.11 in1019.6 mb 0.00 in0.0 mm 0.00 in/hr0.0 mm/hr 0.03 in0.8 mm
09:00 PM 28.1°F-2.2°C 20.3°F-6.5°C 72% 2.0 mph WSW3.2 kmh WSW 5.0 mph8.0 kmh 30.11 in1019.6 mb 0.00 in0.0 mm 0.00 in/hr0.0 mm/hr 0.03 in0.8 mm
09:05 PM 28.0°F-2.2°C 20.2°F-6.6°C 72% 2.0 mph W3.2 kmh W 13.0 mph20.9 kmh 30.11 in1019.6 mb 0.00 in0.0 mm 0.00 in/hr0.0 mm/hr 0.03 in0.8 mm
09:10 PM 28.0°F-2.2°C 20.2°F-6.6°C 72% 4.0 mph WSW6.4 kmh WSW 7.0 mph11.3 kmh 30.11 in1019.6 mb 0.00 in0.0 mm 0.00 in/hr0.0 mm/hr 0.03 in0.8 mm
09:16 PM 27.9°F-2.3°C 20.1°F-6.6°C 72% 3.0 mph SW4.8 kmh SW 12.0 mph19.3 kmh 30.11 in1019.6 mb 0.00 in0.0 mm 0.00 in/hr0.0 mm/hr 0.03 in0.8 mm
09:20 PM 28.0°F-2.2°C 19.8°F-6.8°C 71% 3.0 mph WSW4.8 kmh WSW 9.0 mph14.5 kmh 30.11 in1019.6 mb 0.00 in0.0 mm 0.00 in/hr0.0 mm/hr 0.03 in0.8 mm
09:26 PM 28.0°F-2.2°C 19.8°F-6.8°C 71% Calm Calm 17.0 mph27.4 kmh 30.11 in1019.6 mb 0.00 in0.0 mm 0.00 in/hr0.0 mm/hr 0.03 in0.8 mm
09:30 PM 28.0°F-2.2°C 19.8°F-6.8°C 71% 1.0 mph WSW1.6 kmh WSW 5.0 mph8.0 kmh 30.11 in1019.6 mb 0.00 in0.0 mm 0.00 in/hr0.0 mm/hr 0.03 in0.8 mm
09:36 PM 27.9°F-2.3°C 19.7°F-6.8°C 71% 4.0 mph WSW6.4 kmh WSW 15.0 mph24.1 kmh 30.11 in1019.6 mb 0.00 in0.0 mm 0.00 in/hr0.0 mm/hr 0.03 in0.8 mm
09:41 PM 27.8°F-2.3°C 20.0°F-6.7°C 72% 2.0 mph W3.2 kmh W 14.0 mph22.5 kmh 30.11 in1019.6 mb 0.00 in0.0 mm 0.00 in/hr0.0 mm/hr 0.03 in0.8 mm
09:46 PM 27.7°F-2.4°C 19.9°F-6.7°C 72% 6.0 mph SW9.7 kmh SW 14.0 mph22.5 kmh 30.10 in1019.3 mb 0.00 in0.0 mm 0.00 in/hr0.0 mm/hr 0.03 in0.8 mm
09:50 PM 27.8°F-2.3°C 20.0°F-6.7°C 72% 9.0 mph SW14.5 kmh SW 11.0 mph17.7 kmh 30.11 in1019.6 mb 0.00 in0.0 mm 0.00 in/hr0.0 mm/hr 0.03 in0.8 mm
09:55 PM 27.9°F-2.3°C 20.4°F-6.4°C 73% 7.0 mph SW11.3 kmh SW 13.0 mph20.9 kmh 30.11 in1019.6 mb 0.00 in0.0 mm 0.00 in/hr0.0 mm/hr 0.03 in0.8 mm
10:00 PM 27.8°F-2.3°C 20.6°F-6.3°C 74% 3.0 mph SW4.8 kmh SW 5.0 mph8.0 kmh 30.10 in1019.3 mb 0.00 in0.0 mm 0.00 in/hr0.0 mm/hr 0.03 in0.8 mm
10:06 PM 27.8°F-2.3°C 20.6°F-6.3°C 74% 1.0 mph WSW1.6 kmh WSW 12.0 mph19.3 kmh 30.10 in1019.3 mb 0.00 in0.0 mm 0.00 in/hr0.0 mm/hr 0.03 in0.8 mm
10:10 PM 27.8°F-2.3°C 20.6°F-6.3°C 74% 1.0 mph WSW1.6 kmh WSW 4.0 mph6.4 kmh 30.10 in1019.3 mb 0.00 in0.0 mm 0.00 in/hr0.0 mm/hr 0.03 in0.8 mm
10:15 PM 27.7°F-2.4°C 20.8°F-6.2°C 75% 3.0 mph W4.8 kmh W 12.0 mph19.3 kmh 30.10 in1019.3 mb 0.00 in0.0 mm 0.00 in/hr0.0 mm/hr 0.03 in0.8 mm
10:20 PM 27.6°F-2.4°C 20.7°F-6.3°C 75% Calm Calm 10.0 mph16.1 kmh 30.10 in1019.3 mb 0.00 in0.0 mm 0.00 in/hr0.0 mm/hr 0.03 in0.8 mm
10:26 PM 27.6°F-2.4°C 21.0°F-6.1°C 76% 1.0 mph SW1.6 kmh SW 10.0 mph16.1 kmh 30.10 in1019.3 mb 0.00 in0.0 mm 0.00 in/hr0.0 mm/hr 0.03 in0.8 mm
10:30 PM 27.6°F-2.4°C 21.0°F-6.1°C 76% 3.0 mph WSW4.8 kmh WSW 9.0 mph14.5 kmh 30.10 in1019.3 mb 0.00 in0.0 mm 0.00 in/hr0.0 mm/hr 0.03 in0.8 mm
10:35 PM 27.6°F-2.4°C 21.0°F-6.1°C 76% 3.0 mph WSW4.8 kmh WSW 11.0 mph17.7 kmh 30.10 in1019.3 mb 0.00 in0.0 mm 0.00 in/hr0.0 mm/hr 0.03 in0.8 mm
10:40 PM 27.6°F-2.4°C 21.0°F-6.1°C 76% 7.0 mph SSW11.3 kmh SSW 9.0 mph14.5 kmh 30.10 in1019.3 mb 0.00 in0.0 mm 0.00 in/hr0.0 mm/hr 0.03 in0.8 mm
10:46 PM 27.7°F-2.4°C 21.1°F-6.1°C 76% 2.0 mph W3.2 kmh W 10.0 mph16.1 kmh 30.10 in1019.3 mb 0.00 in0.0 mm 0.00 in/hr0.0 mm/hr 0.03 in0.8 mm
10:50 PM 27.7°F-2.4°C 21.1°F-6.1°C 76% 7.0 mph WSW11.3 kmh WSW 7.0 mph11.3 kmh 30.10 in1019.3 mb 0.00 in0.0 mm 0.00 in/hr0.0 mm/hr 0.03 in0.8 mm
10:56 PM 27.9°F-2.3°C 21.3°F-5.9°C 76% 3.0 mph WNW4.8 kmh WNW 13.0 mph20.9 kmh 30.09 in1019.0 mb 0.00 in0.0 mm 0.00 in/hr0.0 mm/hr 0.03 in0.8 mm
11:00 PM 27.9°F-2.3°C 21.3°F-5.9°C 76% 5.0 mph SW8.0 kmh SW 11.0 mph17.7 kmh 30.09 in1019.0 mb 0.00 in0.0 mm 0.00 in/hr0.0 mm/hr 0.03 in0.8 mm
11:05 PM 28.0°F-2.2°C 21.1°F-6.1°C 75% 3.0 mph WSW4.8 kmh WSW 12.0 mph19.3 kmh 30.09 in1019.0 mb 0.00 in0.0 mm 0.00 in/hr0.0 mm/hr 0.03 in0.8 mm
11:10 PM 28.1°F-2.2°C 21.2°F-6.0°C 75% 2.0 mph WSW3.2 kmh WSW 5.0 mph8.0 kmh 30.09 in1019.0 mb 0.00 in0.0 mm 0.00 in/hr0.0 mm/hr 0.03 in0.8 mm
11:15 PM 28.1°F-2.2°C 21.2°F-6.0°C 75% Calm Calm 10.0 mph16.1 kmh 30.09 in1019.0 mb 0.00 in0.0 mm 0.00 in/hr0.0 mm/hr 0.03 in0.8 mm
11:21 PM 28.1°F-2.2°C 21.2°F-6.0°C 75% 3.0 mph WSW4.8 kmh WSW 7.0 mph11.3 kmh 30.09 in1019.0 mb 0.00 in0.0 mm 0.00 in/hr0.0 mm/hr 0.03 in0.8 mm
11:25 PM 28.1°F-2.2°C 21.2°F-6.0°C 75% 4.0 mph WSW6.4 kmh WSW 7.0 mph11.3 kmh 30.09 in1019.0 mb 0.00 in0.0 mm 0.00 in/hr0.0 mm/hr 0.03 in0.8 mm
11:30 PM 28.1°F-2.2°C 21.2°F-6.0°C 75% 4.0 mph SW6.4 kmh SW 8.0 mph12.9 kmh 30.09 in1019.0 mb 0.00 in0.0 mm 0.00 in/hr0.0 mm/hr 0.03 in0.8 mm
11:35 PM 28.3°F-2.1°C 21.4°F-5.9°C 75% Calm Calm 11.0 mph17.7 kmh 30.10 in1019.3 mb 0.00 in0.0 mm 0.00 in/hr0.0 mm/hr 0.03 in0.8 mm
11:40 PM 28.5°F-1.9°C 21.3°F-5.9°C 74% 4.0 mph WSW6.4 kmh WSW 8.0 mph12.9 kmh 30.09 in1019.0 mb 0.00 in0.0 mm 0.00 in/hr0.0 mm/hr 0.03 in0.8 mm
11:45 PM 28.6°F-1.9°C 21.4°F-5.9°C 74% Calm Calm 13.0 mph20.9 kmh 30.09 in1019.0 mb 0.00 in0.0 mm 0.00 in/hr0.0 mm/hr 0.03 in0.8 mm
11:50 PM 28.5°F-1.9°C 21.3°F-5.9°C 74% 2.0 mph SW3.2 kmh SW 14.0 mph22.5 kmh 30.09 in1019.0 mb 0.00 in0.0 mm 0.00 in/hr0.0 mm/hr 0.03 in0.8 mm
11:55 PM 28.4°F-2.0°C 21.2°F-6.0°C 74% 4.0 mph WSW6.4 kmh WSW 14.0 mph22.5 kmh 30.09 in1019.0 mb 0.00 in0.0 mm 0.00 in/hr0.0 mm/hr 0.03 in0.8 mm